createdAt,value
2023-05-06T00:01:57.240Z,93.68
2023-05-06T00:04:23.770Z,93.70
2023-05-06T00:06:50.253Z,93.65
2023-05-06T00:09:16.783Z,93.55
2023-05-06T00:11:43.213Z,94.03
2023-05-06T00:14:09.587Z,94.02
2023-05-06T00:16:36.044Z,94.43
2023-05-06T00:19:02.627Z,95.38
2023-05-06T00:21:29.554Z,94.63
2023-05-06T00:23:55.998Z,94.19
2023-05-06T00:26:22.357Z,93.94
2023-05-06T00:28:48.991Z,94.15
2023-05-06T00:31:15.616Z,94.62
2023-05-06T00:33:42.079Z,94.62
2023-05-06T00:36:08.921Z,93.96
2023-05-06T00:38:35.671Z,94.68
2023-05-06T00:41:03.244Z,94.26
2023-05-06T00:43:29.652Z,93.80
2023-05-06T00:45:56.280Z,94.66
2023-05-06T00:48:23.150Z,93.42
2023-05-06T00:50:49.802Z,93.66
2023-05-06T00:53:23.595Z,93.95
2023-05-06T00:55:51.198Z,94.19
2023-05-06T00:58:19.714Z,94.69
2023-05-06T01:00:46.209Z,94.58
2023-05-06T01:03:12.874Z,94.13
2023-05-06T01:05:59.870Z,94.10
2023-05-06T01:08:42.180Z,93.92
2023-05-06T01:11:24.261Z,94.20
2023-05-06T01:13:59.117Z,94.04
2023-05-06T01:16:30.789Z,93.52
2023-05-06T01:19:00.238Z,94.45
2023-05-06T01:21:34.552Z,93.85
2023-05-06T01:24:01.659Z,94.74
2023-05-06T01:26:28.076Z,94.06
2023-05-06T01:28:55.000Z,93.24
2023-05-06T01:31:35.727Z,94.09
2023-05-06T01:34:27.861Z,93.79
2023-05-06T01:37:13.043Z,93.85
2023-05-06T01:39:41.289Z,94.63
2023-05-06T01:42:09.990Z,93.24
2023-05-06T01:44:38.866Z,92.95
2023-05-06T01:47:07.386Z,93.87
2023-05-06T01:49:34.552Z,94.21
2023-05-06T01:52:02.277Z,93.63
2023-05-06T01:54:28.712Z,94.54
2023-05-06T01:56:55.110Z,94.52
2023-05-06T01:59:21.797Z,94.30
2023-05-06T02:01:48.208Z,93.69
2023-05-06T02:04:14.841Z,94.94
2023-05-06T02:06:41.218Z,95.06
2023-05-06T02:09:07.555Z,94.79
2023-05-06T02:11:34.009Z,94.14
2023-05-06T02:14:01.942Z,94.11
2023-05-06T02:16:29.036Z,93.00
2023-05-06T02:18:55.635Z,92.80
2023-05-06T02:21:22.954Z,93.13
2023-05-06T02:23:49.992Z,93.43
2023-05-06T02:26:16.641Z,93.69
2023-05-06T02:28:43.142Z,94.10
2023-05-06T02:31:14.314Z,94.21
2023-05-06T02:33:40.795Z,94.96
2023-05-06T02:36:07.296Z,95.07
2023-05-06T02:38:33.776Z,94.92
2023-05-06T02:41:00.431Z,94.92
2023-05-06T02:43:26.892Z,94.41
2023-05-06T02:45:53.683Z,94.96
2023-05-06T02:48:20.115Z,94.60
2023-05-06T02:50:46.523Z,93.86
2023-05-06T02:53:13.298Z,96.12
2023-05-06T02:55:39.911Z,95.71
2023-05-06T02:58:06.308Z,95.94
2023-05-06T03:00:32.663Z,94.72
2023-05-06T03:02:59.092Z,95.28
2023-05-06T03:05:25.610Z,95.54
2023-05-06T03:07:52.417Z,95.91
2023-05-06T03:10:19.027Z,96.38
2023-05-06T03:12:45.686Z,96.37
2023-05-06T03:15:12.596Z,95.53
2023-05-06T03:17:39.300Z,95.91
2023-05-06T03:20:08.290Z,95.54
2023-05-06T03:22:34.782Z,95.89
2023-05-06T03:25:01.192Z,95.27
2023-05-06T03:27:27.582Z,95.23
2023-05-06T03:29:53.980Z,95.67
2023-05-06T03:32:20.957Z,95.37
2023-05-06T03:34:47.408Z,94.43
2023-05-06T03:37:13.853Z,95.40
2023-05-06T03:39:40.389Z,94.16
2023-05-06T03:42:09.254Z,95.08
2023-05-06T03:44:36.297Z,95.31
2023-05-06T03:47:02.895Z,95.85
2023-05-06T03:49:29.295Z,95.02
2023-05-06T03:51:56.079Z,94.96
2023-05-06T03:54:23.132Z,94.57
2023-05-06T03:56:49.528Z,95.03
2023-05-06T03:59:16.068Z,95.18
2023-05-06T04:01:42.657Z,95.21
2023-05-06T04:04:09.255Z,96.73
2023-05-06T04:06:35.694Z,95.77
2023-05-06T04:09:02.144Z,96.24
2023-05-06T04:11:29.812Z,96.08
2023-05-06T04:13:56.388Z,96.26
2023-05-06T04:16:23.290Z,95.61
2023-05-06T04:18:51.500Z,96.11
2023-05-06T04:21:18.440Z,96.62
2023-05-06T04:23:44.886Z,95.92
2023-05-06T04:26:11.321Z,95.23
2023-05-06T04:28:38.064Z,94.97
2023-05-06T04:31:04.905Z,94.68
2023-05-06T04:33:31.398Z,95.24
2023-05-06T04:35:57.995Z,95.32
2023-05-06T04:38:27.042Z,95.90
2023-05-06T04:40:53.582Z,96.35
2023-05-06T04:43:20.042Z,95.77
2023-05-06T04:45:49.541Z,95.93
2023-05-06T04:48:21.951Z,95.08
2023-05-06T04:50:49.634Z,95.56
2023-05-06T04:53:16.807Z,95.69
2023-05-06T04:55:43.308Z,95.76
2023-05-06T04:58:09.670Z,95.20
2023-05-06T05:00:36.183Z,96.45
2023-05-06T05:03:02.778Z,95.79
2023-05-06T05:05:29.280Z,95.69
2023-05-06T05:07:55.947Z,95.71
2023-05-06T05:10:22.437Z,96.54
2023-05-06T05:12:49.009Z,96.29
2023-05-06T05:15:15.568Z,95.52
2023-05-06T05:17:42.051Z,95.31
2023-05-06T05:20:08.956Z,96.46
2023-05-06T05:22:35.420Z,95.07
2023-05-06T05:25:02.321Z,95.64
2023-05-06T05:27:29.176Z,96.57
2023-05-06T05:29:56.297Z,96.05
2023-05-06T05:32:22.820Z,95.80
2023-05-06T05:34:49.319Z,96.99
2023-05-06T05:37:15.776Z,97.07
2023-05-06T05:39:42.186Z,96.19
2023-05-06T05:42:08.747Z,95.89
2023-05-06T05:44:35.384Z,95.88
2023-05-06T05:47:02.557Z,95.21
2023-05-06T05:49:29.689Z,96.00
2023-05-06T05:51:56.241Z,95.21
2023-05-06T05:54:22.811Z,95.63
2023-05-06T05:56:50.397Z,94.47
2023-05-06T05:59:16.996Z,94.44
2023-05-06T06:01:45.067Z,94.63
2023-05-06T06:04:11.741Z,95.27
2023-05-06T06:06:38.336Z,94.65
2023-05-06T06:09:04.867Z,94.26
2023-05-06T06:11:31.317Z,93.93
2023-05-06T06:13:57.680Z,94.28
2023-05-06T06:16:24.271Z,93.43
2023-05-06T06:18:50.914Z,94.91
2023-05-06T06:21:19.734Z,93.00
2023-05-06T06:23:47.230Z,93.53
2023-05-06T06:26:13.666Z,93.33
2023-05-06T06:28:40.294Z,93.93
2023-05-06T06:31:06.788Z,93.64
2023-05-06T06:33:33.291Z,92.70
2023-05-06T06:35:59.767Z,92.87
2023-05-06T06:38:26.255Z,93.27
2023-05-06T06:40:52.880Z,93.91
2023-05-06T06:43:23.733Z,93.47
2023-05-06T06:45:50.614Z,94.81
2023-05-06T06:48:17.172Z,95.15
2023-05-06T06:50:43.675Z,94.75
2023-05-06T06:53:10.816Z,94.83
2023-05-06T06:55:37.524Z,93.23
2023-05-06T06:58:04.091Z,93.82
2023-05-06T07:00:30.637Z,94.20
2023-05-06T07:02:57.137Z,93.79
2023-05-06T07:05:23.521Z,93.89
2023-05-06T07:07:49.881Z,93.70
2023-05-06T07:10:16.389Z,91.74
2023-05-06T07:12:42.875Z,93.87
2023-05-06T07:15:10.037Z,91.45
2023-05-06T07:17:36.663Z,91.96
2023-05-06T07:20:03.539Z,91.21
2023-05-06T07:22:30.114Z,91.70
2023-05-06T07:24:56.681Z,90.77
2023-05-06T07:27:24.069Z,91.26
2023-05-06T07:29:50.720Z,92.68
2023-05-06T07:32:17.421Z,90.90
2023-05-06T07:34:43.901Z,90.07
2023-05-06T07:37:10.279Z,90.11
2023-05-06T07:39:36.693Z,90.16
2023-05-06T07:42:03.207Z,90.86
2023-05-06T07:44:29.672Z,90.46
2023-05-06T07:46:56.381Z,91.24
2023-05-06T07:49:23.057Z,89.34
2023-05-06T07:51:49.451Z,90.11
2023-05-06T07:54:15.821Z,89.40
2023-05-06T07:56:43.872Z,89.04
2023-05-06T07:59:10.360Z,88.60
2023-05-06T08:01:36.905Z,88.30
2023-05-06T08:04:03.545Z,88.78
2023-05-06T08:06:30.033Z,86.81
2023-05-06T08:08:56.551Z,85.37
2023-05-06T08:11:22.962Z,86.25
2023-05-06T08:13:49.373Z,84.64
2023-05-06T08:16:16.044Z,85.33
2023-05-06T08:18:43.627Z,84.03
2023-05-06T08:21:10.061Z,83.74
2023-05-06T08:23:36.426Z,84.18
2023-05-06T08:26:03.027Z,82.89
2023-05-06T08:28:29.530Z,83.17
2023-05-06T08:30:56.330Z,85.22
2023-05-06T08:33:22.957Z,83.30
2023-05-06T08:35:49.542Z,83.73
2023-05-06T08:38:16.355Z,82.74
2023-05-06T08:40:44.868Z,82.97
2023-05-06T08:43:13.429Z,86.03
2023-05-06T08:45:41.287Z,80.91
2023-05-06T08:48:08.023Z,82.70
2023-05-06T08:50:41.972Z,81.38
2023-05-06T08:53:12.319Z,79.78
2023-05-06T08:55:40.895Z,80.24
2023-05-06T08:58:10.816Z,77.89
2023-05-06T09:00:37.795Z,75.42
2023-05-06T09:03:04.500Z,72.25
2023-05-06T09:05:31.149Z,72.80
2023-05-06T09:07:57.833Z,71.99
2023-05-06T09:10:24.356Z,73.19
2023-05-06T09:12:54.030Z,69.82
2023-05-06T09:15:25.015Z,69.36
2023-05-06T09:17:51.547Z,72.00
2023-05-06T09:20:17.992Z,75.02
2023-05-06T09:22:44.683Z,69.00
2023-05-06T09:25:12.077Z,69.31
2023-05-06T09:27:39.514Z,68.98
2023-05-06T09:30:07.232Z,71.10
2023-05-06T09:32:37.356Z,67.04
2023-05-06T09:35:06.226Z,65.50
2023-05-06T09:37:32.761Z,64.76
2023-05-06T09:40:00.919Z,65.58
2023-05-06T09:42:30.057Z,67.21
2023-05-06T09:45:01.688Z,65.72
2023-05-06T09:47:34.072Z,65.80
2023-05-06T09:50:01.902Z,65.88
2023-05-06T09:52:29.217Z,66.79
2023-05-06T09:54:56.665Z,66.69
2023-05-06T09:57:24.123Z,69.93
2023-05-06T09:59:52.277Z,67.65
2023-05-06T10:02:19.499Z,69.32
2023-05-06T10:04:48.600Z,68.49
2023-05-06T10:07:19.710Z,66.60
2023-05-06T10:09:46.780Z,66.11
2023-05-06T10:12:13.897Z,65.46
2023-05-06T10:14:40.422Z,65.77
2023-05-06T10:17:12.578Z,65.56
2023-05-06T10:19:42.355Z,66.46
2023-05-06T10:22:27.214Z,61.44
2023-05-06T10:25:05.723Z,60.70
2023-05-06T10:27:35.847Z,61.71
2023-05-06T10:30:02.442Z,59.04
2023-05-06T10:32:32.112Z,61.93
2023-05-06T10:35:25.151Z,60.67
2023-05-06T10:37:52.704Z,58.89
2023-05-06T10:40:19.702Z,59.09
2023-05-06T10:42:46.201Z,55.87
2023-05-06T10:45:15.237Z,57.61
2023-05-06T10:47:56.831Z,56.44
2023-05-06T10:50:24.685Z,55.18
2023-05-06T10:52:55.372Z,53.25
2023-05-06T10:55:33.359Z,51.75
2023-05-06T10:58:11.821Z,54.91
2023-05-06T11:00:38.441Z,52.76
2023-05-06T11:03:10.869Z,51.83
2023-05-06T11:05:51.533Z,51.42
2023-05-06T11:08:27.215Z,49.35
2023-05-06T11:10:54.184Z,49.28
2023-05-06T11:13:28.291Z,51.74
2023-05-06T11:15:56.301Z,54.76
2023-05-06T11:18:29.546Z,53.42
2023-05-06T11:21:05.002Z,52.15
2023-05-06T11:23:47.003Z,50.46
2023-05-06T11:26:14.008Z,52.49
2023-05-06T11:28:43.909Z,52.37
2023-05-06T11:31:12.447Z,50.78
2023-05-06T11:33:48.449Z,50.47
2023-05-06T11:36:19.373Z,51.36
2023-05-06T11:38:50.073Z,49.36
2023-05-06T11:41:17.171Z,52.79
2023-05-06T11:43:49.919Z,50.71
2023-05-06T11:46:18.786Z,51.22
2023-05-06T11:48:45.373Z,49.93
2023-05-06T11:51:11.930Z,50.84
2023-05-06T11:53:38.563Z,49.50
2023-05-06T11:56:08.683Z,48.70
2023-05-06T11:58:35.351Z,50.11
2023-05-06T12:01:04.389Z,49.67
2023-05-06T12:03:33.069Z,50.90
2023-05-06T12:06:00.337Z,50.08
2023-05-06T12:08:31.517Z,48.91
2023-05-06T12:11:02.063Z,46.71
2023-05-06T12:13:29.429Z,46.37
2023-05-06T12:15:58.292Z,46.91
2023-05-06T12:18:25.574Z,48.90
2023-05-06T12:21:02.676Z,45.94
2023-05-06T12:23:29.230Z,46.22
2023-05-06T12:26:03.747Z,48.08
2023-05-06T12:28:31.608Z,46.82
2023-05-06T12:30:58.255Z,48.19
2023-05-06T12:33:24.996Z,45.09
2023-05-06T12:35:52.560Z,43.80
2023-05-06T12:38:18.980Z,44.53
2023-05-06T12:40:53.823Z,44.16
2023-05-06T12:43:29.365Z,43.26
2023-05-06T12:46:09.421Z,44.60
2023-05-06T12:48:36.086Z,47.70
2023-05-06T12:51:17.969Z,44.78
2023-05-06T12:53:44.538Z,45.35
2023-05-06T12:56:11.288Z,44.37
2023-05-06T12:58:39.455Z,45.33
2023-05-06T13:01:07.851Z,44.69
2023-05-06T13:03:38.359Z,44.34
2023-05-06T13:06:05.480Z,45.27
2023-05-06T13:08:32.056Z,46.77
2023-05-06T13:10:59.715Z,46.83
2023-05-06T13:13:26.432Z,48.66
2023-05-06T13:15:53.711Z,45.92
2023-05-06T13:18:20.332Z,45.02
2023-05-06T13:20:46.897Z,45.27
2023-05-06T13:23:13.399Z,44.83
2023-05-06T13:25:51.085Z,45.91
2023-05-06T13:28:18.397Z,45.33
2023-05-06T13:30:44.898Z,43.20
2023-05-06T13:33:11.268Z,45.61
2023-05-06T13:35:37.746Z,43.79
2023-05-06T13:38:04.272Z,44.56
2023-05-06T13:40:30.820Z,43.66
2023-05-06T13:42:57.743Z,42.15
2023-05-06T13:45:24.213Z,41.62
2023-05-06T13:47:50.785Z,40.47
2023-05-06T13:50:17.473Z,38.94
2023-05-06T13:52:43.908Z,42.00
2023-05-06T13:55:10.592Z,39.97
2023-05-06T13:57:37.358Z,39.30
2023-05-06T14:00:07.191Z,39.15
2023-05-06T14:02:33.704Z,39.10
2023-05-06T14:05:00.977Z,38.85
2023-05-06T14:07:27.474Z,38.90
2023-05-06T14:09:54.005Z,39.29
2023-05-06T14:12:22.800Z,42.03
2023-05-06T14:14:49.219Z,41.14
2023-05-06T14:17:15.641Z,40.08
2023-05-06T14:19:42.083Z,40.60
2023-05-06T14:22:08.483Z,40.33
2023-05-06T14:24:34.942Z,41.80
2023-05-06T14:27:01.453Z,42.43
2023-05-06T14:29:27.988Z,42.47
2023-05-06T14:31:54.470Z,41.82
2023-05-06T14:34:20.971Z,40.62
2023-05-06T14:36:48.051Z,40.59
2023-05-06T14:39:14.449Z,40.66
2023-05-06T14:41:41.001Z,41.56
2023-05-06T14:44:07.390Z,41.54
2023-05-06T14:46:33.974Z,41.82
2023-05-06T14:49:00.482Z,40.42
2023-05-06T14:51:27.125Z,39.49
2023-05-06T14:53:53.723Z,39.17
2023-05-06T14:56:21.063Z,38.75
2023-05-06T14:58:47.686Z,40.51
2023-05-06T15:01:14.080Z,42.38
2023-05-06T15:03:40.635Z,41.64
2023-05-06T15:06:07.233Z,41.74
2023-05-06T15:08:33.651Z,42.80
2023-05-06T15:11:03.079Z,41.71
2023-05-06T15:13:30.648Z,43.38
2023-05-06T15:15:57.200Z,41.86
2023-05-06T15:18:23.663Z,42.26
2023-05-06T15:20:50.793Z,42.75
2023-05-06T15:23:17.217Z,41.46
2023-05-06T15:25:43.768Z,43.92
2023-05-06T15:28:10.349Z,44.68
2023-05-06T15:30:37.813Z,45.38
2023-05-06T15:33:05.603Z,44.77
2023-05-06T15:35:32.237Z,44.91
2023-05-06T15:37:59.122Z,45.55
2023-05-06T15:40:26.836Z,46.29
2023-05-06T15:42:53.361Z,44.76
2023-05-06T15:45:20.995Z,44.19
2023-05-06T15:47:48.406Z,44.79
2023-05-06T15:50:28.938Z,42.49
2023-05-06T15:52:58.894Z,44.06
2023-05-06T15:55:26.485Z,43.18
2023-05-06T15:57:54.747Z,45.39
2023-05-06T16:00:21.977Z,43.91
2023-05-06T16:02:48.676Z,43.71
2023-05-06T16:05:15.730Z,42.95
2023-05-06T16:07:42.430Z,44.55
2023-05-06T16:10:09.985Z,44.74
2023-05-06T16:12:36.578Z,45.65
2023-05-06T16:15:03.190Z,45.50
2023-05-06T16:17:30.225Z,44.95
2023-05-06T16:19:56.623Z,44.90
2023-05-06T16:22:23.017Z,44.55
2023-05-06T16:24:49.524Z,43.92
2023-05-06T16:27:16.132Z,43.31
2023-05-06T16:29:42.622Z,45.45
2023-05-06T16:32:09.065Z,46.65
2023-05-06T16:34:38.251Z,43.99
2023-05-06T16:37:07.505Z,47.71
2023-05-06T16:39:34.081Z,45.24
2023-05-06T16:42:00.860Z,46.93
2023-05-06T16:44:28.838Z,47.28
2023-05-06T16:46:55.970Z,47.10
2023-05-06T16:49:22.552Z,47.49
2023-05-06T16:51:49.176Z,47.01
2023-05-06T16:54:15.719Z,47.88
2023-05-06T16:56:51.366Z,46.73
2023-05-06T16:59:21.435Z,46.63
2023-05-06T17:01:48.652Z,47.01
2023-05-06T17:04:15.963Z,48.83
2023-05-06T17:06:42.404Z,47.72
2023-05-06T17:09:08.880Z,50.42
2023-05-06T17:11:35.319Z,47.28
2023-05-06T17:14:01.715Z,49.18
2023-05-06T17:16:28.168Z,49.24
2023-05-06T17:18:54.746Z,47.85
2023-05-06T17:21:21.358Z,48.63
2023-05-06T17:23:47.980Z,49.37
2023-05-06T17:26:17.630Z,46.15
2023-05-06T17:28:44.081Z,48.13
2023-05-06T17:31:10.536Z,48.75
2023-05-06T17:33:37.073Z,49.28
2023-05-06T17:36:03.695Z,49.43
2023-05-06T17:38:30.254Z,50.41
2023-05-06T17:40:56.786Z,49.18
2023-05-06T17:43:23.366Z,50.39
2023-05-06T17:45:49.880Z,49.93
2023-05-06T17:48:16.584Z,49.90
2023-05-06T17:50:43.012Z,50.89
2023-05-06T17:53:10.719Z,50.74
2023-05-06T17:55:37.268Z,52.24
2023-05-06T17:58:03.770Z,51.18
2023-05-06T18:00:30.253Z,53.00
2023-05-06T18:02:56.877Z,52.26
2023-05-06T18:05:25.503Z,53.18
2023-05-06T18:07:52.349Z,55.00
2023-05-06T18:10:19.249Z,54.19
2023-05-06T18:12:46.146Z,54.81
2023-05-06T18:15:12.905Z,54.00
2023-05-06T18:17:39.900Z,55.37
2023-05-06T18:20:07.965Z,55.11
2023-05-06T18:22:35.001Z,55.94
2023-05-06T18:25:02.105Z,55.35
2023-05-06T18:27:29.583Z,55.80
2023-05-06T18:29:56.090Z,56.46
2023-05-06T18:32:22.593Z,57.17
2023-05-06T18:34:49.091Z,57.16
2023-05-06T18:37:15.757Z,57.82
2023-05-06T18:39:42.816Z,58.00
2023-05-06T18:42:09.566Z,58.07
2023-05-06T18:44:36.530Z,58.21
2023-05-06T18:47:03.260Z,58.07
2023-05-06T18:49:33.759Z,58.68
2023-05-06T18:52:03.494Z,59.25
2023-05-06T18:54:30.966Z,59.11
2023-05-06T18:56:58.633Z,59.66
2023-05-06T18:59:26.117Z,59.43
2023-05-06T19:01:52.846Z,60.27
2023-05-06T19:04:19.638Z,60.43
2023-05-06T19:06:46.144Z,60.49
2023-05-06T19:09:12.689Z,60.24
2023-05-06T19:11:39.725Z,60.80
2023-05-06T19:14:06.213Z,61.56
2023-05-06T19:16:35.834Z,60.89
2023-05-06T19:19:09.550Z,60.51
2023-05-06T19:21:38.324Z,60.01
2023-05-06T19:24:06.392Z,59.79
2023-05-06T19:26:34.020Z,60.30
2023-05-06T19:29:00.654Z,62.58
2023-05-06T19:31:27.139Z,62.79
2023-05-06T19:33:54.484Z,62.45
2023-05-06T19:36:21.549Z,63.22
2023-05-06T19:38:48.163Z,62.77
2023-05-06T19:41:14.904Z,62.41
2023-05-06T19:43:45.274Z,63.01
2023-05-06T19:46:12.224Z,62.36
2023-05-06T19:48:45.082Z,62.90
2023-05-06T19:51:12.571Z,63.63
2023-05-06T19:53:39.243Z,63.66
2023-05-06T19:56:12.633Z,64.51
2023-05-06T19:58:44.165Z,64.61
2023-05-06T20:01:11.537Z,65.57
2023-05-06T20:03:38.592Z,65.70
2023-05-06T20:06:05.856Z,64.95
2023-05-06T20:08:32.446Z,64.91
2023-05-06T20:10:59.503Z,66.19
2023-05-06T20:13:26.083Z,67.07
2023-05-06T20:15:55.038Z,66.18
2023-05-06T20:18:21.743Z,65.93
2023-05-06T20:20:48.168Z,66.35
2023-05-06T20:23:15.468Z,65.52
2023-05-06T20:25:41.920Z,67.03
2023-05-06T20:28:09.459Z,66.09
2023-05-06T20:30:36.101Z,65.70
2023-05-06T20:33:02.802Z,66.16
2023-05-06T20:35:29.335Z,67.06
2023-05-06T20:37:56.893Z,67.52
2023-05-06T20:40:24.886Z,68.18
2023-05-06T20:42:52.249Z,67.65
2023-05-06T20:45:19.375Z,68.64
2023-05-06T20:47:46.244Z,69.33
2023-05-06T20:50:16.919Z,70.29
2023-05-06T20:52:49.899Z,68.06
2023-05-06T20:55:17.482Z,69.15
2023-05-06T20:57:44.630Z,68.79
2023-05-06T21:00:12.773Z,69.95
2023-05-06T21:02:42.554Z,69.36
2023-05-06T21:05:11.222Z,68.64
2023-05-06T21:07:38.411Z,68.48
2023-05-06T21:10:06.031Z,68.94
2023-05-06T21:12:33.491Z,69.90
2023-05-06T21:15:00.308Z,69.33
2023-05-06T21:17:27.089Z,68.82
2023-05-06T21:19:53.853Z,67.85
2023-05-06T21:22:23.858Z,67.62
2023-05-06T21:24:51.022Z,68.01
2023-05-06T21:27:17.666Z,69.47
2023-05-06T21:29:44.304Z,68.89
2023-05-06T21:32:10.894Z,68.90
2023-05-06T21:34:37.564Z,69.79
2023-05-06T21:37:04.150Z,69.35
2023-05-06T21:39:30.617Z,71.15
2023-05-06T21:41:57.113Z,70.59
2023-05-06T21:44:23.500Z,71.80
2023-05-06T21:46:49.983Z,72.74
2023-05-06T21:49:16.591Z,72.28
2023-05-06T21:51:43.026Z,73.76
2023-05-06T21:54:09.565Z,73.14
2023-05-06T21:56:35.999Z,73.47
2023-05-06T21:59:02.463Z,72.13
2023-05-06T22:01:29.343Z,73.31
2023-05-06T22:03:56.231Z,72.49
2023-05-06T22:06:22.840Z,72.60
2023-05-06T22:08:49.551Z,73.00
2023-05-06T22:11:16.497Z,72.54
2023-05-06T22:13:43.037Z,73.00
2023-05-06T22:16:09.951Z,73.19
2023-05-06T22:18:41.135Z,73.54
2023-05-06T22:21:08.433Z,73.24
2023-05-06T22:23:35.104Z,73.60
2023-05-06T22:26:01.826Z,73.42
2023-05-06T22:28:28.357Z,74.43
2023-05-06T22:30:55.155Z,74.56
2023-05-06T22:33:21.742Z,75.07
2023-05-06T22:35:48.165Z,74.91
2023-05-06T22:38:14.627Z,75.51
2023-05-06T22:40:41.129Z,75.88
2023-05-06T22:43:07.594Z,75.85
2023-05-06T22:45:34.184Z,75.94
2023-05-06T22:48:00.986Z,76.06
2023-05-06T22:50:28.032Z,77.24
2023-05-06T22:52:54.462Z,75.57
2023-05-06T22:55:21.002Z,76.49
2023-05-06T22:57:49.916Z,77.11
2023-05-06T23:00:17.424Z,77.43
2023-05-06T23:02:44.030Z,77.31
2023-05-06T23:05:10.765Z,77.84
2023-05-06T23:07:37.307Z,78.04
2023-05-06T23:10:04.246Z,77.84
2023-05-06T23:12:34.554Z,78.82
2023-05-06T23:15:01.421Z,78.86
2023-05-06T23:17:28.061Z,78.71
2023-05-06T23:19:54.609Z,79.28
2023-05-06T23:22:21.066Z,78.59
2023-05-06T23:24:47.490Z,78.77
2023-05-06T23:27:13.919Z,79.04
2023-05-06T23:29:40.459Z,78.45
2023-05-06T23:32:07.132Z,79.66
2023-05-06T23:34:33.513Z,78.89
2023-05-06T23:37:00.121Z,79.75
2023-05-06T23:39:26.638Z,79.90
2023-05-06T23:41:53.068Z,78.96
2023-05-06T23:44:19.416Z,79.78
2023-05-06T23:46:45.917Z,80.06
2023-05-06T23:49:12.395Z,78.39
2023-05-06T23:51:38.856Z,79.55
2023-05-06T23:54:05.576Z,79.58
2023-05-06T23:56:32.112Z,79.48
2023-05-06T23:58:58.473Z,78.72
